createdAt,value
2022-11-27T00:03:50.081Z,7.10
2022-11-27T00:08:52.147Z,7.10
2022-11-27T00:13:53.913Z,7.10
2022-11-27T00:18:55.934Z,7.10
2022-11-27T00:23:59.407Z,7.20
2022-11-27T00:29:01.983Z,7.20
2022-11-27T00:34:06.484Z,7.20
2022-11-27T00:39:08.287Z,7.10
2022-11-27T00:44:10.037Z,7.20
2022-11-27T00:49:14.323Z,7.20
2022-11-27T00:54:16.057Z,7.20
2022-11-27T00:59:17.848Z,7.10
2022-11-27T01:04:19.560Z,7.10
2022-11-27T01:09:21.328Z,7.10
2022-11-27T01:14:23.057Z,7.10
2022-11-27T01:19:24.793Z,7.10
2022-11-27T01:24:26.663Z,7.10
2022-11-27T01:29:28.393Z,7.10
2022-11-27T01:34:30.223Z,7.10
2022-11-27T01:39:31.970Z,7.00
2022-11-27T01:44:33.799Z,7.00
2022-11-27T01:49:37.304Z,7.10
2022-11-27T01:54:53.194Z,7.10
2022-11-27T01:59:59.195Z,7.00
2022-11-27T02:05:01.032Z,7.10
2022-11-27T02:10:04.238Z,7.10
2022-11-27T02:15:19.960Z,7.10
2022-11-27T02:20:57.021Z,7.00
2022-11-27T02:26:23.057Z,7.00
2022-11-27T02:31:38.835Z,7.00
2022-11-27T02:36:49.804Z,7.00
2022-11-27T02:42:00.511Z,7.00
2022-11-27T02:47:04.156Z,7.00
2022-11-27T02:52:06.963Z,6.90
2022-11-27T02:57:12.197Z,7.00
2022-11-27T03:02:20.156Z,7.00
2022-11-27T03:07:54.216Z,7.10
2022-11-27T03:12:56.194Z,7.00
2022-11-27T03:18:05.740Z,7.00
2022-11-27T03:23:07.552Z,7.00
2022-11-27T03:28:10.569Z,7.10
2022-11-27T03:33:12.470Z,7.10
2022-11-27T03:38:14.252Z,7.10
2022-11-27T03:43:26.479Z,7.10
2022-11-27T03:48:43.544Z,7.20
2022-11-27T03:54:10.355Z,7.30
2022-11-27T03:59:23.030Z,7.30
2022-11-27T04:04:25.905Z,7.30
2022-11-27T04:09:27.649Z,7.30
2022-11-27T04:14:29.372Z,7.40
2022-11-27T04:19:31.143Z,7.30
2022-11-27T04:24:33.037Z,7.40
2022-11-27T04:29:36.535Z,7.40
2022-11-27T04:34:38.562Z,7.30
2022-11-27T04:39:40.502Z,7.40
2022-11-27T04:44:42.523Z,7.40
2022-11-27T04:49:44.563Z,7.40
2022-11-27T04:54:46.297Z,7.40
2022-11-27T04:59:48.063Z,7.40
2022-11-27T05:04:49.819Z,7.40
2022-11-27T05:09:51.646Z,7.40
2022-11-27T05:14:53.363Z,7.40
2022-11-27T05:19:55.259Z,7.40
2022-11-27T05:24:56.985Z,7.40
2022-11-27T05:29:58.721Z,7.40
2022-11-27T05:35:00.464Z,7.40
2022-11-27T05:40:02.265Z,7.30
2022-11-27T05:45:04.489Z,7.30
2022-11-27T05:50:06.945Z,7.20
2022-11-27T05:55:09.306Z,7.20
2022-11-27T06:00:11.777Z,7.20
2022-11-27T06:05:13.765Z,7.30
2022-11-27T06:10:15.742Z,7.20
2022-11-27T06:15:17.541Z,7.20
2022-11-27T06:20:20.403Z,7.20
2022-11-27T06:25:22.367Z,7.10
2022-11-27T06:30:24.138Z,7.10
2022-11-27T06:35:25.927Z,7.20
2022-11-27T06:40:27.711Z,7.20
2022-11-27T06:45:29.546Z,7.10
2022-11-27T06:50:31.315Z,7.10
2022-11-27T06:55:33.076Z,7.10
2022-11-27T07:00:35.009Z,7.10
2022-11-27T07:05:37.159Z,7.20
2022-11-27T07:10:38.873Z,7.20
2022-11-27T07:15:40.592Z,7.20
2022-11-27T07:20:42.355Z,7.30
2022-11-27T07:25:44.121Z,7.20
2022-11-27T07:30:45.970Z,7.20
2022-11-27T07:35:47.847Z,7.30
2022-11-27T07:40:49.595Z,7.30
2022-11-27T07:45:51.529Z,7.30
2022-11-27T07:50:53.308Z,7.30
2022-11-27T07:55:58.834Z,7.40
2022-11-27T08:01:01.341Z,7.40
2022-11-27T08:06:03.808Z,7.40
2022-11-27T08:11:05.938Z,7.50
2022-11-27T08:16:08.131Z,7.40
2022-11-27T08:21:09.964Z,7.50
2022-11-27T08:26:13.275Z,7.50
2022-11-27T08:31:15.570Z,7.60
2022-11-27T08:36:18.400Z,7.60
2022-11-27T08:41:20.536Z,7.60
2022-11-27T08:46:22.289Z,7.70
2022-11-27T08:51:24.228Z,7.70
2022-11-27T08:56:26.602Z,7.70
2022-11-27T09:01:31.159Z,7.70
2022-11-27T09:06:34.975Z,7.70
2022-11-27T09:11:37.220Z,7.70
2022-11-27T09:16:39.136Z,7.70
2022-11-27T09:21:41.007Z,7.70
2022-11-27T09:26:44.900Z,7.70
2022-11-27T09:31:46.846Z,7.70
2022-11-27T09:36:50.595Z,7.80
2022-11-27T09:41:58.338Z,7.80
2022-11-27T09:47:11.305Z,7.70
2022-11-27T09:52:23.660Z,7.70
2022-11-27T09:57:34.511Z,7.80
2022-11-27T10:02:36.681Z,7.70
2022-11-27T10:07:53.708Z,7.80
2022-11-27T10:13:25.165Z,7.70
2022-11-27T10:18:33.555Z,7.80
2022-11-27T10:24:00.344Z,7.80
2022-11-27T10:29:30.208Z,7.80
2022-11-27T10:34:39.851Z,7.90
2022-11-27T10:39:48.735Z,7.80
2022-11-27T10:45:12.501Z,7.80
2022-11-27T10:50:16.290Z,7.80
2022-11-27T10:55:32.254Z,7.90
2022-11-27T11:00:33.993Z,7.80
2022-11-27T11:06:18.812Z,7.90
2022-11-27T11:10:57.718Z,8.00
2022-11-27T11:16:14.769Z,8.10
2022-11-27T11:21:29.792Z,8.10
2022-11-27T11:26:38.944Z,8.10
2022-11-27T11:31:41.684Z,8.10
2022-11-27T11:37:04.376Z,8.10
2022-11-27T11:42:11.236Z,8.20
2022-11-27T11:47:19.425Z,8.20
2022-11-27T11:52:42.771Z,8.30
2022-11-27T11:58:20.919Z,8.50
2022-11-27T12:04:05.645Z,8.50
2022-11-27T12:09:30.612Z,8.40
2022-11-27T12:14:51.517Z,8.40
2022-11-27T12:19:53.982Z,8.50
2022-11-27T12:25:23.783Z,8.40
2022-11-27T12:30:38.656Z,8.40
2022-11-27T12:35:56.930Z,8.40
2022-11-27T12:41:23.504Z,8.40
2022-11-27T12:46:37.867Z,8.40
2022-11-27T12:51:51.308Z,8.40
2022-11-27T12:57:04.088Z,8.40
2022-11-27T13:02:23.839Z,8.40
2022-11-27T13:07:28.912Z,8.40
2022-11-27T13:12:39.422Z,8.40
2022-11-27T13:17:43.695Z,8.40
2022-11-27T13:22:46.872Z,8.40
2022-11-27T13:27:51.747Z,8.40
2022-11-27T13:33:06.318Z,8.40
2022-11-27T13:38:18.811Z,8.40
2022-11-27T13:43:39.124Z,8.40
2022-11-27T13:48:46.808Z,8.40
2022-11-27T13:53:48.623Z,8.40
2022-11-27T13:58:50.523Z,8.50
2022-11-27T14:03:52.545Z,8.40
2022-11-27T14:09:06.380Z,8.40
2022-11-27T14:14:26.519Z,8.40
2022-11-27T14:19:36.323Z,8.40
2022-11-27T14:24:44.201Z,8.40
2022-11-27T14:29:46.802Z,8.40
2022-11-27T14:34:49.277Z,8.50
2022-11-27T14:39:51.540Z,8.40
2022-11-27T14:45:08.931Z,8.40
2022-11-27T14:50:14.722Z,8.40
2022-11-27T14:55:18.091Z,8.30
2022-11-27T15:00:27.335Z,8.30
2022-11-27T15:05:29.864Z,8.30
2022-11-27T15:10:38.729Z,8.30
2022-11-27T15:15:43.745Z,8.30
2022-11-27T15:20:46.195Z,8.30
2022-11-27T15:26:14.999Z,8.20
2022-11-27T15:31:31.606Z,8.20
2022-11-27T15:36:46.977Z,8.30
2022-11-27T15:41:56.432Z,8.20
2022-11-27T15:47:01.276Z,8.20
2022-11-27T15:52:03.002Z,8.10
2022-11-27T15:57:05.085Z,8.10
2022-11-27T16:02:07.569Z,8.10
2022-11-27T16:07:09.415Z,8.10
2022-11-27T16:12:11.294Z,8.10
2022-11-27T16:17:13.117Z,8.10
2022-11-27T16:22:14.864Z,8.10
2022-11-27T16:27:16.654Z,8.00
2022-11-27T16:32:18.400Z,8.00
2022-11-27T16:37:20.180Z,8.00
2022-11-27T16:42:21.974Z,8.00
2022-11-27T16:47:23.817Z,8.00
2022-11-27T16:52:25.608Z,7.90
2022-11-27T16:57:27.377Z,7.90
2022-11-27T17:02:29.345Z,7.90
2022-11-27T17:07:31.411Z,7.90
2022-11-27T17:12:33.817Z,7.90
2022-11-27T17:17:39.956Z,7.90
2022-11-27T17:22:42.101Z,7.90
2022-11-27T17:27:43.988Z,7.90
2022-11-27T17:32:46.090Z,7.90
2022-11-27T17:37:47.894Z,7.90
2022-11-27T17:42:49.813Z,7.80
2022-11-27T17:47:51.846Z,7.80
2022-11-27T17:52:53.634Z,7.80
2022-11-27T17:57:55.565Z,7.80
2022-11-27T18:02:57.537Z,7.80
2022-11-27T18:08:00.537Z,7.80
2022-11-27T18:13:02.489Z,7.80
2022-11-27T18:18:04.946Z,7.80
2022-11-27T18:23:06.875Z,7.80
2022-11-27T18:28:09.129Z,7.80
2022-11-27T18:33:11.068Z,7.80
2022-11-27T18:38:13.191Z,7.80
2022-11-27T18:43:15.436Z,7.90
2022-11-27T18:48:20.215Z,8.00
2022-11-27T18:53:22.183Z,7.80
2022-11-27T18:58:23.984Z,7.80
2022-11-27T19:03:25.751Z,7.80
2022-11-27T19:08:29.382Z,7.80
2022-11-27T19:13:32.057Z,7.80
2022-11-27T19:18:36.539Z,7.80
2022-11-27T19:23:39.998Z,7.80
2022-11-27T19:28:43.488Z,7.80
2022-11-27T19:33:50.499Z,7.90
2022-11-27T19:38:57.888Z,7.90
2022-11-27T19:44:05.481Z,7.80
2022-11-27T19:49:12.213Z,7.80
2022-11-27T19:54:15.003Z,7.90
2022-11-27T19:59:19.194Z,8.00
2022-11-27T20:04:24.684Z,7.90
2022-11-27T20:09:26.674Z,7.90
2022-11-27T20:14:31.997Z,8.00
2022-11-27T20:19:33.837Z,8.00
2022-11-27T20:24:48.004Z,8.20
2022-11-27T20:30:00.421Z,8.10
2022-11-27T20:35:02.444Z,8.20
2022-11-27T20:40:05.514Z,8.30
2022-11-27T20:45:07.863Z,8.30
2022-11-27T20:50:10.263Z,8.30
2022-11-27T20:55:12.927Z,8.40
2022-11-27T21:00:16.239Z,8.50
2022-11-27T21:05:18.675Z,8.50
2022-11-27T21:10:23.106Z,8.60
2022-11-27T21:15:24.986Z,8.70
2022-11-27T21:20:28.794Z,8.80
2022-11-27T21:25:30.773Z,8.80
2022-11-27T21:30:38.033Z,8.90
2022-11-27T21:35:40.548Z,8.90
2022-11-27T21:40:42.454Z,8.90
2022-11-27T21:45:44.350Z,9.00
2022-11-27T21:50:46.525Z,9.00
2022-11-27T21:55:48.334Z,9.00
2022-11-27T22:00:51.021Z,8.90
2022-11-27T22:06:01.759Z,9.00
2022-11-27T22:11:08.945Z,9.00
2022-11-27T22:16:14.304Z,9.10
2022-11-27T22:21:17.336Z,9.10
2022-11-27T22:26:21.644Z,9.10
2022-11-27T22:31:26.155Z,9.10
2022-11-27T22:36:34.593Z,9.10
2022-11-27T22:41:40.579Z,9.20
2022-11-27T22:46:42.658Z,9.20
2022-11-27T22:51:44.921Z,9.20
2022-11-27T22:56:47.146Z,9.20
2022-11-27T23:01:49.051Z,9.20
2022-11-27T23:06:50.805Z,9.20
2022-11-27T23:11:52.873Z,9.20
2022-11-27T23:16:54.689Z,9.30
2022-11-27T23:21:56.756Z,9.20
2022-11-27T23:26:58.582Z,9.20
2022-11-27T23:32:00.413Z,9.20
2022-11-27T23:37:02.236Z,9.10
2022-11-27T23:42:04.616Z,9.10
2022-11-27T23:47:06.408Z,9.00
2022-11-27T23:52:10.853Z,9.00
2022-11-27T23:57:14.906Z,9.00
